Time;durP1;ratioP1;P1;durP2;ratioP2;P2;SDS_P1;SDS_P2;PMS_P1;PMS_P2;Temp;Humidity;BMP_temperature;BMP_pressure;BME280_temperature;BME280_humidity;BME280_pressure;Samples;Min_cycle;Max_cycle;Signal;HPM_P1;HPM_P2
2022/07/18 00:02:07;;;;;;;2.67;1.70;;;;;;;23.67;37.54;102325.09;5103938;28;20051;-64
2022/07/18 00:04:35;;;;;;;5.28;2.17;;;;;;;23.64;37.19;102325.63;5102735;28;20040;-65
2022/07/18 00:07:03;;;;;;;4.18;1.70;;;;;;;23.62;37.63;102316.84;5113830;28;20158;-65
2022/07/18 00:09:30;;;;;;;5.75;1.90;;;;;;;23.59;37.64;102323.72;5116142;28;20052;-65
2022/07/18 00:12:04;;;;;;;4.45;1.80;;;;;;;23.58;37.52;102319.31;5106331;28;20053;-65
2022/07/18 00:14:33;;;;;;;4.82;1.70;;;;;;;23.56;37.69;102316.03;5111142;28;20048;-65
2022/07/18 00:17:01;;;;;;;3.75;1.98;;;;;;;23.55;37.67;102324.53;5105252;28;20080;-65
2022/07/18 00:19:29;;;;;;;4.07;1.67;;;;;;;23.48;37.46;102310.22;5110483;28;20097;-65
2022/07/18 00:21:57;;;;;;;2.72;2.00;;;;;;;23.51;37.89;102315.16;5110802;28;20070;-65
2022/07/18 00:24:25;;;;;;;3.78;1.58;;;;;;;23.48;37.92;102311.03;5119388;28;20051;-64
2022/07/18 00:26:52;;;;;;;4.18;1.73;;;;;;;23.46;37.74;102309.66;5115528;28;20044;-65
2022/07/18 00:29:20;;;;;;;2.35;1.52;;;;;;;23.41;37.64;102307.75;5102272;28;20044;-64
2022/07/18 00:31:50;;;;;;;3.08;1.45;;;;;;;23.41;37.60;102305.00;5113282;28;20055;-65
2022/07/18 00:34:18;;;;;;;2.17;1.55;;;;;;;23.38;37.96;102305.53;5111770;28;20072;-65
2022/07/18 00:36:45;;;;;;;3.97;2.05;;;;;;;23.37;37.93;102301.97;5103567;28;20476;-65
2022/07/18 00:39:13;;;;;;;6.22;2.03;;;;;;;23.34;37.87;102293.47;5115758;28;20141;-65
2022/07/18 00:41:46;;;;;;;3.78;1.85;;;;;;;23.35;37.94;102304.16;5110948;28;20521;-65
2022/07/18 00:44:17;;;;;;;4.28;1.90;;;;;;;23.34;37.81;102299.78;5102253;28;20063;-64
2022/07/18 00:46:45;;;;;;;3.88;1.65;;;;;;;23.32;38.01;102295.66;5107956;28;20047;-64
2022/07/18 00:49:14;;;;;;;3.13;1.60;;;;;;;23.29;38.17;102288.78;5106103;28;20153;-64
2022/07/18 00:51:42;;;;;;;4.78;1.70;;;;;;;23.29;37.79;102287.97;5104027;28;20060;-64
2022/07/18 00:54:10;;;;;;;2.40;1.50;;;;;;;23.27;38.18;102285.50;5087921;28;20064;-64
2022/07/18 00:56:38;;;;;;;2.40;1.42;;;;;;;23.26;38.22;102286.59;5100211;28;20455;-63
2022/07/18 00:59:06;;;;;;;4.38;1.70;;;;;;;23.21;37.96;102275.63;5107739;28;20076;-64
2022/07/18 01:01:48;;;;;;;3.40;1.73;;;;;;;23.22;37.86;102284.66;5098968;28;20390;-64
2022/07/18 01:04:20;;;;;;;3.78;1.80;;;;;;;23.19;38.29;102279.72;5100438;28;20491;-64
2022/07/18 01:06:50;;;;;;;3.20;1.65;;;;;;;23.17;38.28;102285.47;5102149;28;20255;-64
2022/07/18 01:09:18;;;;;;;4.88;1.75;;;;;;;23.16;38.25;102280.28;5106317;28;20063;-64
2022/07/18 01:11:47;;;;;;;2.88;1.58;;;;;;;23.13;38.30;102275.31;5105158;28;20479;-64
2022/07/18 01:14:16;;;;;;;5.43;1.80;;;;;;;23.12;38.17;102274.50;5091885;28;20049;-64
2022/07/18 01:16:44;;;;;;;4.10;1.77;;;;;;;23.11;38.27;102280.25;5104639;28;20122;-64
2022/07/18 01:19:12;;;;;;;4.97;2.10;;;;;;;23.09;38.31;102276.97;5114136;28;20052;-64
2022/07/18 01:21:42;;;;;;;4.30;1.55;;;;;;;23.05;38.40;102268.44;5109630;28;20047;-64
2022/07/18 01:24:09;;;;;;;6.03;2.20;;;;;;;23.03;38.48;102271.47;5104728;28;20111;-64
2022/07/18 01:26:37;;;;;;;4.53;2.38;;;;;;;23.03;38.55;102267.91;5110399;28;20052;-64
2022/07/18 01:29:06;;;;;;;3.30;1.70;;;;;;;22.96;38.44;102259.09;5116433;28;20048;-64
2022/07/18 01:31:34;;;;;;;3.90;1.77;;;;;;;22.98;38.56;102262.41;5112710;28;20055;-64
2022/07/18 01:34:02;;;;;;;4.15;2.03;;;;;;;22.96;38.57;102265.41;5108787;28;20048;-65
2022/07/18 01:36:30;;;;;;;2.95;1.63;;;;;;;22.93;38.54;102260.47;5103687;28;20089;-64
2022/07/18 01:39:00;;;;;;;3.53;1.50;;;;;;;22.90;38.71;102263.75;5101577;28;20438;-64
2022/07/18 01:41:28;;;;;;;3.78;1.80;;;;;;;22.89;38.81;102258.53;5110141;28;20040;-63
2022/07/18 01:43:55;;;;;;;3.13;1.75;;;;;;;22.87;38.94;102263.47;5100605;28;20051;-63
2022/07/18 01:46:23;;;;;;;2.58;1.60;;;;;;;22.85;38.96;102262.91;5104950;28;20363;-65
2022/07/18 01:48:53;;;;;;;5.28;2.00;;;;;;;22.81;38.73;102270.84;5117294;28;20051;-64
2022/07/18 01:51:21;;;;;;;3.38;1.83;;;;;;;22.70;39.09;102250.78;5107472;28;20048;-64
2022/07/18 01:53:56;;;;;;;3.33;1.63;;;;;;;22.78;38.91;102273.28;5107972;28;20112;-64
2022/07/18 01:56:25;;;;;;;3.28;1.70;;;;;;;22.68;38.96;102263.09;5105090;28;20138;-65
2022/07/18 01:58:52;;;;;;;4.35;1.98;;;;;;;22.72;38.99;102266.94;5103760;28;20052;-65
2022/07/18 02:01:20;;;;;;;4.05;1.95;;;;;;;22.70;39.12;102263.66;5103905;28;20043;-64
2022/07/18 02:03:48;;;;;;;3.75;1.85;;;;;;;22.67;38.96;102267.75;5099251;28;20041;-64
2022/07/18 02:06:16;;;;;;;5.07;1.77;;;;;;;22.67;39.15;102266.94;5120878;28;20054;-64
2022/07/18 02:08:43;;;;;;;3.75;1.90;;;;;;;22.59;39.05;102259.22;5102284;28;20044;-64
2022/07/18 02:11:11;;;;;;;5.88;2.30;;;;;;;22.62;39.13;102269.66;5110990;28;20073;-64
2022/07/18 02:13:40;;;;;;;7.00;2.30;;;;;;;22.60;39.05;102269.94;5116377;28;20044;-65
2022/07/18 02:16:08;;;;;;;3.72;1.90;;;;;;;22.52;39.21;102247.72;5112102;28;20112;-64
2022/07/18 02:18:36;;;;;;;5.75;2.00;;;;;;;22.55;39.31;102261.69;5100828;28;20048;-65
2022/07/18 02:21:09;;;;;;;2.17;1.42;;;;;;;22.54;39.52;102254.56;5090909;28;20139;-64
2022/07/18 02:23:37;;;;;;;7.82;2.38;;;;;;;22.53;39.60;102247.47;5101695;28;20461;-64
2022/07/18 02:26:05;;;;;;;4.70;2.10;;;;;;;22.51;39.36;102248.81;5107492;28;20493;-65
2022/07/18 02:28:34;;;;;;;3.92;2.25;;;;;;;22.50;39.59;102248.00;5111366;28;20074;-64
2022/07/18 02:31:03;;;;;;;4.30;1.98;;;;;;;22.43;39.58;102232.88;5097220;28;20079;-64
2022/07/18 02:33:31;;;;;;;5.22;1.50;;;;;;;22.47;39.42;102232.09;5099178;28;20044;-64
2022/07/18 02:35:59;;;;;;;3.95;2.30;;;;;;;22.46;39.39;102243.31;5115193;28;20078;-64
2022/07/18 02:38:27;;;;;;;3.22;1.67;;;;;;;22.45;39.46;102242.50;5097554;28;20067;-64
2022/07/18 02:40:55;;;;;;;4.47;2.50;;;;;;;22.42;39.63;102236.72;5093142;28;20059;-64
2022/07/18 02:43:22;;;;;;;4.22;1.85;;;;;;;22.41;39.61;102235.91;5105803;28;20474;-64
2022/07/18 02:45:50;;;;;;;4.47;1.60;;;;;;;22.39;39.55;102230.69;5102029;28;20052;-64
2022/07/18 02:48:20;;;;;;;2.80;1.75;;;;;;;22.38;39.78;102234.50;5103002;28;20044;-64
2022/07/18 02:50:47;;;;;;;3.90;2.15;;;;;;;22.36;39.63;102235.88;5117226;28;20052;-64
2022/07/18 02:53:15;;;;;;;5.38;1.73;;;;;;;22.33;39.91;102230.94;5104469;28;20083;-63
2022/07/18 02:55:43;;;;;;;4.38;2.30;;;;;;;22.31;39.67;102231.19;5111058;28;20044;-63
2022/07/18 02:58:10;;;;;;;7.70;2.65;;;;;;;22.30;39.75;102234.19;5097636;28;20059;-63
2022/07/18 03:00:38;;;;;;;3.35;1.80;;;;;;;22.28;39.83;102233.66;5101221;28;20052;-63
2022/07/18 03:03:06;;;;;;;4.38;2.38;;;;;;;22.27;39.99;102232.81;5104878;28;20073;-63
2022/07/18 03:05:35;;;;;;;4.72;1.77;;;;;;;22.23;40.06;102223.50;5105428;28;20075;-64
2022/07/18 03:08:03;;;;;;;3.08;1.88;;;;;;;22.23;39.80;102234.44;5105396;28;20052;-63
2022/07/18 03:10:31;;;;;;;7.10;2.72;;;;;;;22.22;39.94;102234.72;5098703;28;20055;-63
2022/07/18 03:12:59;;;;;;;3.65;1.90;;;;;;;22.21;40.02;102236.63;5102466;28;20052;-63
2022/07/18 03:15:26;;;;;;;5.22;2.65;;;;;;;22.18;39.99;102226.19;5109115;28;20055;-64
2022/07/18 03:17:54;;;;;;;4.32;2.10;;;;;;;22.17;40.03;102230.03;5114683;28;20048;-63
2022/07/18 03:20:22;;;;;;;5.93;2.45;;;;;;;22.15;40.06;102223.16;5101965;28;20486;-63
2022/07/18 03:22:51;;;;;;;7.03;2.00;;;;;;;22.12;40.23;102219.06;5104217;28;20083;-63
2022/07/18 03:25:19;;;;;;;5.00;2.10;;;;;;;22.11;40.23;102203.72;5099846;28;20044;-64
2022/07/18 03:27:46;;;;;;;3.80;2.00;;;;;;;22.08;40.29;102201.50;5113890;28;20040;-64
2022/07/18 03:30:14;;;;;;;3.88;2.00;;;;;;;22.06;40.24;102190.00;5093307;28;20080;-63
2022/07/18 03:32:42;;;;;;;3.47;2.00;;;;;;;22.03;40.23;102194.09;5115730;28;20360;-64
2022/07/18 03:35:10;;;;;;;4.43;1.90;;;;;;;22.01;40.37;102196.22;5102977;28;20044;-64
2022/07/18 03:37:37;;;;;;;3.60;2.28;;;;;;;22.01;40.46;102196.22;5106717;28;20489;-64
2022/07/18 03:40:08;;;;;;;5.68;2.58;;;;;;;21.97;40.20;102186.91;5094178;28;20072;-63
2022/07/18 03:42:37;;;;;;;4.10;2.20;;;;;;;21.95;40.41;102194.56;5106439;28;20070;-64
2022/07/18 03:45:06;;;;;;;4.70;2.40;;;;;;;21.94;40.46;102195.66;5112062;28;20078;-63
2022/07/18 03:47:34;;;;;;;3.55;1.95;;;;;;;21.91;40.43;102193.44;5104778;28;20052;-63
2022/07/18 03:50:02;;;;;;;4.28;2.20;;;;;;;21.89;40.31;102184.66;5090483;28;20051;-63
2022/07/18 03:52:30;;;;;;;6.18;2.30;;;;;;;21.88;40.49;102190.41;5099616;28;20052;-63
2022/07/18 03:55:01;;;;;;;5.60;1.98;;;;;;;21.87;40.36;102194.22;5107803;28;20044;-63
2022/07/18 03:57:30;;;;;;;3.28;2.22;;;;;;;21.85;40.58;102199.97;5111278;28;20052;-63
2022/07/18 03:59:58;;;;;;;3.97;2.15;;;;;;;21.84;40.46;102194.75;5108631;28;20088;-62
2022/07/18 04:02:26;;;;;;;4.57;1.95;;;;;;;21.80;40.48;102194.47;5112875;28;20047;-63
2022/07/18 04:04:53;;;;;;;7.50;2.65;;;;;;;21.77;40.62;102184.03;5120170;28;20071;-63
2022/07/18 04:07:21;;;;;;;7.55;2.15;;;;;;;21.80;40.45;102201.84;5116072;28;20073;-63
2022/07/18 04:09:49;;;;;;;3.00;1.88;;;;;;;21.62;40.45;102178.47;5107185;28;20082;-63
2022/07/18 04:12:16;;;;;;;4.43;2.42;;;;;;;21.69;40.36;102181.81;5109368;28;20083;-63
2022/07/18 04:14:46;;;;;;;3.70;2.08;;;;;;;21.73;40.64;102205.66;5106079;28;20048;-64
2022/07/18 04:17:13;;;;;;;2.97;1.77;;;;;;;21.73;40.68;102188.41;5102707;28;20055;-63
2022/07/18 04:19:41;;;;;;;3.45;1.98;;;;;;;21.71;40.54;102191.41;5115054;28;20098;-64
2022/07/18 04:22:09;;;;;;;4.25;2.20;;;;;;;21.71;40.63;102193.31;5107485;28;20044;-64
2022/07/18 04:24:37;;;;;;;5.40;2.40;;;;;;;21.70;40.72;102186.19;5103954;28;20064;-64
2022/07/18 04:27:05;;;;;;;4.57;2.03;;;;;;;21.69;40.76;102190.00;5086091;28;20087;-64
2022/07/18 04:29:33;;;;;;;8.00;2.10;;;;;;;21.66;40.58;102185.91;5114652;28;20074;-64
2022/07/18 04:32:02;;;;;;;4.60;2.45;;;;;;;21.66;40.66;102185.06;5113597;28;20048;-64
2022/07/18 04:34:30;;;;;;;4.47;2.30;;;;;;;21.64;40.68;102176.31;5106149;28;20150;-64
2022/07/18 04:36:57;;;;;;;4.82;1.80;;;;;;;21.62;40.80;102175.75;5116652;28;20058;-64
2022/07/18 04:39:25;;;;;;;4.30;2.05;;;;;;;21.62;40.85;102175.75;5098856;28;20068;-64
2022/07/18 04:41:53;;;;;;;4.60;2.13;;;;;;;21.61;40.74;102169.44;5107628;28;20072;-64
2022/07/18 04:44:21;;;;;;;5.22;2.17;;;;;;;21.60;40.80;102172.44;5093940;28;20044;-63
2022/07/18 04:46:48;;;;;;;5.90;2.15;;;;;;;21.58;40.79;102177.34;5118574;28;20411;-63
2022/07/18 04:49:17;;;;;;;4.65;2.20;;;;;;;21.57;40.72;102170.22;5113752;28;20071;-64
2022/07/18 04:51:45;;;;;;;6.68;2.30;;;;;;;21.57;40.69;102171.06;5100514;28;20074;-64
2022/07/18 04:54:13;;;;;;;3.95;2.50;;;;;;;21.55;40.69;102175.97;5095705;28;20164;-64
2022/07/18 04:56:41;;;;;;;6.10;1.90;;;;;;;21.53;40.65;102180.06;5092562;28;20616;-64
2022/07/18 04:59:08;;;;;;;3.30;1.83;;;;;;;21.54;40.66;102179.78;5097410;28;20109;-63
2022/07/18 05:01:36;;;;;;;3.55;2.03;;;;;;;21.52;40.72;102173.75;5105513;28;20047;-63
2022/07/18 05:04:04;;;;;;;5.68;2.38;;;;;;;21.52;40.66;102183.88;5108319;28;20112;-65
2022/07/18 05:06:34;;;;;;;3.42;2.10;;;;;;;21.51;40.68;102184.97;5115784;28;20058;-64
2022/07/18 05:09:01;;;;;;;4.60;2.35;;;;;;;21.50;40.62;102178.66;5102334;28;20060;-63
2022/07/18 05:11:29;;;;;;;6.68;2.03;;;;;;;21.50;40.56;102181.41;5101608;28;20050;-63
2022/07/18 05:13:57;;;;;;;6.72;2.22;;;;;;;21.50;40.60;102175.09;5113918;28;20116;-63
2022/07/18 05:16:25;;;;;;;3.67;2.30;;;;;;;21.50;40.50;102175.94;5107725;28;20047;-63
2022/07/18 05:18:53;;;;;;;6.05;2.45;;;;;;;21.51;40.63;102172.09;5100396;28;20053;-64
2022/07/18 05:21:20;;;;;;;9.48;2.50;;;;;;;21.51;40.68;102176.75;5120327;28;20105;-64
2022/07/18 05:23:50;;;;;;;6.68;2.78;;;;;;;21.50;40.71;102184.13;5116621;28;20048;-64
2022/07/18 05:26:17;;;;;;;7.25;2.30;;;;;;;21.49;40.74;102189.88;5104553;28;20044;-64
2022/07/18 05:28:45;;;;;;;7.68;2.83;;;;;;;21.48;40.82;102185.47;5097815;28;20086;-65
2022/07/18 05:31:14;;;;;;;5.72;2.83;;;;;;;21.47;40.76;102195.59;5099183;28;20048;-63
2022/07/18 05:33:41;;;;;;;6.15;2.70;;;;;;;21.46;40.83;102187.66;5109313;28;20048;-64
2022/07/18 05:36:10;;;;;;;7.03;2.97;;;;;;;21.44;40.93;102180.53;5098492;28;20044;-63
2022/07/18 05:38:38;;;;;;;5.50;2.78;;;;;;;21.44;40.92;102187.91;5098332;28;20052;-62
2022/07/18 05:41:08;;;;;;;4.75;2.75;;;;;;;21.43;40.88;102183.53;5104109;28;20479;-66
2022/07/18 05:43:35;;;;;;;11.35;3.63;;;;;;;21.40;41.37;102186.78;5099432;28;20051;-66
2022/07/18 05:46:04;;;;;;;8.40;4.20;;;;;;;21.40;41.59;102189.53;5111745;28;20044;-66
2022/07/18 05:48:32;;;;;;;10.60;3.78;;;;;;;21.40;41.45;102193.09;5113601;28;20040;-65
2022/07/18 05:50:59;;;;;;;7.25;3.80;;;;;;;21.38;41.41;102189.78;4752377;28;10000229;-63
2022/07/18 05:53:27;;;;;;;8.98;3.35;;;;;;;21.40;41.40;102193.09;5105567;28;20044;-63
2022/07/18 05:55:55;;;;;;;8.77;3.70;;;;;;;21.40;41.58;102192.25;5100336;28;20094;-63
2022/07/18 05:58:24;;;;;;;12.73;3.40;;;;;;;21.42;41.65;102184.63;5104694;28;20341;-63
2022/07/18 06:00:52;;;;;;;5.53;3.17;;;;;;;21.41;41.57;102182.97;5106512;28;20107;-65
2022/07/18 06:03:19;;;;;;;9.90;3.10;;;;;;;21.42;41.62;102184.63;5096654;28;20059;-64
2022/07/18 06:05:47;;;;;;;5.28;2.92;;;;;;;21.43;41.68;102180.81;5094709;28;20055;-64
2022/07/18 06:08:15;;;;;;;9.18;3.83;;;;;;;21.43;41.68;102183.53;5092194;28;20441;-63
2022/07/18 06:10:43;;;;;;;8.23;3.42;;;;;;;21.43;41.70;102176.16;5099410;28;20067;-65
2022/07/18 06:13:13;;;;;;;9.35;2.80;;;;;;;21.43;41.80;102181.63;5096631;28;20134;-63
2022/07/18 06:15:42;;;;;;;4.82;2.78;;;;;;;21.42;41.63;102174.50;5093995;28;20040;-64
2022/07/18 06:18:10;;;;;;;7.55;2.97;;;;;;;21.42;41.67;102184.63;5106564;28;20052;-64
2022/07/18 06:20:38;;;;;;;6.32;2.90;;;;;;;21.43;41.61;102187.09;5105195;28;20090;-65
2022/07/18 06:23:06;;;;;;;8.02;3.10;;;;;;;21.44;41.63;102187.91;5109442;28;20158;-68
2022/07/18 06:25:34;;;;;;;6.30;2.67;;;;;;;21.44;41.50;102186.00;5098320;28;20135;-67
2022/07/18 06:28:01;;;;;;;10.55;3.20;;;;;;;21.44;41.59;102183.28;5091557;28;20178;-66
2022/07/18 06:30:29;;;;;;;6.57;3.03;;;;;;;21.44;41.59;102179.72;5111030;28;20477;-66
2022/07/18 06:32:58;;;;;;;6.68;3.05;;;;;;;21.44;41.50;102161.41;5093810;28;21441;-63
2022/07/18 06:35:26;;;;;;;5.63;3.15;;;;;;;21.30;41.59;102141.03;5099974;28;20398;-63
2022/07/18 06:37:54;;;;;;;8.13;2.20;;;;;;;21.45;41.75;102167.69;5100744;28;20047;-65
2022/07/18 06:40:25;;;;;;;5.43;2.75;;;;;;;21.46;41.48;102165.78;5097231;28;20076;-62
2022/07/18 06:42:53;;;;;;;6.57;2.70;;;;;;;21.46;41.48;102154.84;5095838;28;20058;-65
2022/07/18 06:45:21;;;;;;;4.78;2.67;;;;;;;21.45;41.50;102162.22;5098703;28;20067;-65
2022/07/18 06:47:48;;;;;;;4.97;2.45;;;;;;;21.46;41.54;102160.31;5100542;28;20128;-65
2022/07/18 06:50:18;;;;;;;5.63;2.70;;;;;;;21.46;41.50;102161.13;5096155;28;20544;-65
2022/07/18 06:52:46;;;;;;;4.55;2.60;;;;;;;21.46;41.49;102150.19;5103471;28;20056;-63
2022/07/18 06:55:15;;;;;;;4.20;2.55;;;;;;;21.44;41.46;102147.72;5097907;28;20052;-65
2022/07/18 06:57:44;;;;;;;8.10;2.88;;;;;;;21.45;41.54;102140.34;5104307;28;20070;-64
2022/07/18 07:00:14;;;;;;;6.80;2.72;;;;;;;21.48;41.51;102138.97;5099219;28;20587;-65
2022/07/18 07:02:43;;;;;;;5.70;2.40;;;;;;;21.46;41.50;102141.97;5093097;28;20075;-65
2022/07/18 07:05:11;;;;;;;4.75;2.05;;;;;;;21.50;41.66;102136.81;5095304;28;20048;-65
2022/07/18 07:07:40;;;;;;;5.75;2.60;;;;;;;21.53;41.78;102144.50;5102934;28;20153;-66
2022/07/18 07:10:15;;;;;;;6.20;2.33;;;;;;;21.54;41.73;102149.69;5096096;28;20083;-66
2022/07/18 07:12:45;;;;;;;5.95;2.33;;;;;;;21.58;41.74;102142.59;5099334;28;20142;-65
2022/07/18 07:15:14;;;;;;;7.88;3.15;;;;;;;21.60;41.73;102148.63;5099036;28;20043;-66
2022/07/18 07:17:42;;;;;;;5.63;2.22;;;;;;;21.63;41.75;102152.75;5106839;28;20108;-66
2022/07/18 07:20:11;;;;;;;5.32;2.53;;;;;;;21.67;41.79;102153.88;5112617;28;20079;-66
2022/07/18 07:22:45;;;;;;;3.28;1.88;;;;;;;21.68;41.86;102161.00;5094625;28;20052;-67
2022/07/18 07:25:14;;;;;;;4.13;2.30;;;;;;;21.70;41.84;102158.81;5099585;28;20051;-67
2022/07/18 07:27:41;;;;;;;3.78;1.95;;;;;;;21.73;41.96;102152.81;5116778;28;20170;-67
2022/07/18 07:30:11;;;;;;;5.55;2.47;;;;;;;21.74;41.95;102154.47;5098393;28;20049;-68
2022/07/18 07:32:41;;;;;;;7.22;2.10;;;;;;;21.74;41.88;102149.81;5100082;28;20040;-68
2022/07/18 07:35:12;;;;;;;4.75;2.15;;;;;;;21.77;41.75;102149.28;5103580;28;20052;-68
2022/07/18 07:37:41;;;;;;;4.03;2.28;;;;;;;21.75;41.75;102139.69;5099890;28;20476;-66
2022/07/18 07:40:11;;;;;;;5.28;2.42;;;;;;;21.83;41.74;102149.31;5104335;28;20064;-67
2022/07/18 07:42:39;;;;;;;8.30;2.20;;;;;;;21.84;41.72;102153.72;5106233;28;20051;-67
2022/07/18 07:45:08;;;;;;;6.35;2.00;;;;;;;21.86;41.85;102157.00;5115336;28;20064;-67
2022/07/18 07:47:36;;;;;;;5.18;2.00;;;;;;;21.80;41.64;102142.47;5106013;28;20044;-68
2022/07/18 07:50:05;;;;;;;5.82;1.83;;;;;;;21.85;41.62;102147.97;5119735;28;20044;-67
2022/07/18 07:52:33;;;;;;;3.83;1.83;;;;;;;21.88;41.82;102147.44;5126607;28;20056;-67
2022/07/18 07:55:01;;;;;;;4.60;2.13;;;;;;;21.87;41.71;102148.53;5107449;28;20059;-67
2022/07/18 07:57:30;;;;;;;4.00;1.90;;;;;;;21.90;41.58;102142.53;5111377;28;20043;-67
2022/07/18 08:00:02;;;;;;;6.55;2.30;;;;;;;21.89;41.50;102132.66;5105151;28;20044;-66
2022/07/18 08:02:29;;;;;;;6.68;2.10;;;;;;;21.93;41.57;102135.69;5113816;28;20385;-66
2022/07/18 08:04:57;;;;;;;3.15;2.00;;;;;;;21.95;41.79;102139.81;5108353;28;20094;-67
2022/07/18 08:07:25;;;;;;;4.13;1.98;;;;;;;21.96;41.56;102119.56;5121617;28;20047;-67
2022/07/18 08:09:53;;;;;;;7.97;2.33;;;;;;;21.96;41.81;102119.56;5099461;28;20048;-68
2022/07/18 08:12:21;;;;;;;3.92;1.88;;;;;;;21.91;41.84;102108.59;5098441;28;20052;-67
2022/07/18 08:14:51;;;;;;;4.18;1.80;;;;;;;22.01;41.77;102121.50;5112952;28;20055;-66
2022/07/18 08:17:19;;;;;;;5.20;2.10;;;;;;;22.05;41.93;102117.97;5105182;28;20044;-67
2022/07/18 08:19:47;;;;;;;6.03;2.10;;;;;;;22.05;41.98;102120.72;5104580;28;20062;-67
2022/07/18 08:22:15;;;;;;;3.80;2.20;;;;;;;22.08;42.04;102119.34;5113773;28;20062;-68
2022/07/18 08:24:42;;;;;;;4.93;1.90;;;;;;;22.12;42.08;102111.44;5123013;28;20043;-68
2022/07/18 08:27:11;;;;;;;2.92;1.85;;;;;;;22.15;41.97;102113.63;5097867;28;20044;-68
2022/07/18 08:29:38;;;;;;;5.10;2.25;;;;;;;22.16;42.11;102105.16;5116902;28;20479;-67
2022/07/18 08:32:28;;;;;;;4.45;2.40;;;;;;;22.19;42.10;102099.13;5104994;28;20048;-68
2022/07/18 08:34:55;;;;;;;4.45;1.80;;;;;;;22.19;42.18;102095.56;5109245;28;20051;-67
2022/07/18 08:37:23;;;;;;;2.65;1.70;;;;;;;22.24;42.24;102104.63;5106597;28;20044;-67
2022/07/18 08:39:51;;;;;;;3.85;1.98;;;;;;;22.26;42.40;102099.72;5107462;28;20387;-67
2022/07/18 08:42:23;;;;;;;5.13;2.10;;;;;;;22.29;42.32;102101.09;5108318;28;20062;-67
2022/07/18 08:44:51;;;;;;;3.75;1.60;;;;;;;22.33;42.39;102104.94;5110970;28;20051;-68
2022/07/18 08:47:20;;;;;;;3.97;2.00;;;;;;;22.29;42.41;102093.69;5109908;28;20063;-68
2022/07/18 08:49:56;;;;;;;3.47;1.95;;;;;;;22.40;42.47;102108.22;5114898;28;20051;-68
2022/07/18 08:52:24;;;;;;;5.63;1.92;;;;;;;22.37;42.06;102097.81;5106730;28;20109;-68
2022/07/18 08:55:14;;;;;;;3.83;1.88;;;;;;;22.46;42.44;102120.84;5110459;28;20408;-68
2022/07/18 08:57:52;;;;;;;4.50;1.80;;;;;;;22.49;42.35;102119.47;5111362;28;20127;-68
2022/07/18 09:00:21;;;;;;;2.88;1.50;;;;;;;22.54;42.52;102116.72;5115877;28;20052;-68
2022/07/18 09:02:57;;;;;;;3.92;1.73;;;;;;;22.55;42.39;102116.44;5122984;28;20076;-67
2022/07/18 09:05:27;;;;;;;2.58;1.48;;;;;;;22.59;42.72;102116.72;5100636;28;20048;-67
2022/07/18 09:08:12;;;;;;;8.35;1.83;;;;;;;22.62;42.63;102111.53;5107730;28;20102;-68
2022/07/18 09:10:51;;;;;;;2.63;1.70;;;;;;;22.60;42.47;102101.94;5104474;28;20036;-68
2022/07/18 09:13:20;;;;;;;4.65;1.80;;;;;;;22.68;42.90;102113.19;5101773;28;20134;-69
2022/07/18 09:16:02;;;;;;;5.90;1.70;;;;;;;22.73;42.77;102107.72;5117046;28;20083;-68
2022/07/18 09:18:31;;;;;;;2.75;1.50;;;;;;;22.76;42.81;102108.25;5097699;28;20074;-68
2022/07/18 09:21:08;;;;;;;5.70;2.22;;;;;;;22.81;42.74;102116.53;5106543;28;20048;-69
2022/07/18 09:23:39;;;;;;;5.20;1.60;;;;;;;22.85;42.89;102118.44;5124421;28;20052;-69
2022/07/18 09:26:08;;;;;;;4.97;1.80;;;;;;;22.87;42.87;102116.25;5115035;28;20139;-68
2022/07/18 09:28:50;;;;;;;2.78;1.80;;;;;;;22.89;42.60;102107.75;5098317;28;20069;-68
2022/07/18 09:31:37;;;;;;;3.22;1.77;;;;;;;22.95;42.96;102109.41;5107963;28;20077;-67
2022/07/18 09:34:06;;;;;;;4.72;2.00;;;;;;;22.87;42.72;102097.06;5125593;28;20141;-67
2022/07/18 09:36:36;;;;;;;5.57;1.80;;;;;;;23.03;42.91;102112.41;5095058;28;20058;-68
2022/07/18 09:39:20;;;;;;;2.90;1.90;;;;;;;23.07;43.02;102118.16;5105593;28;20048;-68
2022/07/18 09:41:48;;;;;;;4.57;1.92;;;;;;;23.13;42.83;102110.75;5093154;28;20044;-68
2022/07/18 09:44:20;;;;;;;4.30;1.40;;;;;;;23.16;43.03;102107.47;5119476;28;20100;-68
2022/07/18 09:47:02;;;;;;;2.90;1.60;;;;;;;23.19;42.90;102112.41;5113767;28;20098;-67
2022/07/18 09:49:31;;;;;;;5.28;2.00;;;;;;;23.25;42.61;102108.56;5097769;28;20044;-67
2022/07/18 09:52:08;;;;;;;3.40;1.60;;;;;;;23.29;42.56;102110.47;5098159;28;20048;-67
2022/07/18 09:54:38;;;;;;;6.15;2.22;;;;;;;23.33;42.80;102113.50;5125774;28;20479;-68
2022/07/18 09:57:06;;;;;;;4.90;1.60;;;;;;;23.35;42.61;102114.03;5110555;28;20101;-68
2022/07/18 09:59:35;;;;;;;4.28;1.83;;;;;;;23.42;42.67;102102.78;5102425;28;20041;-67
2022/07/18 10:02:04;;;;;;;6.93;1.88;;;;;;;23.44;42.97;102104.13;5110474;28;20051;-68
2022/07/18 10:04:32;;;;;;;9.52;2.33;;;;;;;23.47;42.91;102097.28;5124698;28;20052;-68
2022/07/18 10:07:25;;;;;;;5.85;1.60;;;;;;;23.51;43.03;102101.94;5092554;28;20048;-70
2022/07/18 10:10:00;;;;;;;3.85;2.10;;;;;;;23.59;42.67;102097.81;5106917;28;20096;-67
2022/07/18 10:12:28;;;;;;;3.72;1.90;;;;;;;23.61;42.33;102101.94;5098786;28;20405;-67
2022/07/18 10:14:56;;;;;;;3.05;1.50;;;;;;;23.66;42.72;102098.34;5087453;28;20060;-68
2022/07/18 10:17:25;;;;;;;8.70;1.80;;;;;;;23.66;42.71;102093.69;5100578;28;20082;-71
2022/07/18 10:19:52;;;;;;;2.38;1.33;;;;;;;23.72;42.45;102099.97;5117228;28;20054;-68
2022/07/18 10:22:22;;;;;;;3.33;2.05;;;;;;;23.82;42.44;102099.94;5103424;28;20059;-68
2022/07/18 10:24:50;;;;;;;4.22;1.60;;;;;;;23.88;42.02;102101.56;5105997;28;20052;-68
2022/07/18 10:27:20;;;;;;;4.68;1.90;;;;;;;23.93;42.41;102107.03;5121236;28;20043;-68
2022/07/18 10:30:10;;;;;;;3.88;1.35;;;;;;;23.98;42.34;102095.22;5114124;28;20105;-67
2022/07/18 10:32:38;;;;;;;6.68;1.90;;;;;;;24.04;41.78;102098.75;5104387;28;20101;-65
2022/07/18 10:35:07;;;;;;;3.42;1.63;;;;;;;24.08;42.39;102099.84;5095865;28;20063;-66
2022/07/18 10:37:37;;;;;;;3.53;1.65;;;;;;;24.12;41.80;102092.69;5087721;28;20094;-68
2022/07/18 10:40:35;;;;;;;3.78;1.75;;;;;;;24.15;42.21;102086.63;5106672;28;20052;-68
2022/07/18 10:43:34;;;;;;;3.83;1.75;;;;;;;24.25;42.50;102086.56;4682315;28;9999868;-69
2022/07/18 10:46:06;;;;;;;4.65;1.63;;;;;;;24.33;42.54;102088.72;5038019;28;20096;-69
2022/07/18 10:48:57;;;;;;;4.68;1.50;;;;;;;24.40;42.41;102080.97;5044696;28;20048;-68
2022/07/18 10:51:33;;;;;;;3.90;1.98;;;;;;;24.48;42.24;102080.38;5041493;28;20499;-69
2022/07/18 10:54:16;;;;;;;3.03;1.42;;;;;;;24.54;42.43;102081.97;5046528;28;20393;-69
2022/07/18 10:57:10;;;;;;;3.22;1.92;;;;;;;24.62;42.66;102078.63;5044955;28;20162;-69
2022/07/18 11:00:00;;;;;;;2.95;1.52;;;;;;;24.71;42.73;102080.75;5034450;28;20057;-69
2022/07/18 11:02:32;;;;;;;6.20;1.73;;;;;;;24.81;42.88;102084.25;5043506;28;20053;-70
2022/07/18 11:05:00;;;;;;;2.40;1.48;;;;;;;24.88;42.52;102084.72;5039027;28;20104;-70
2022/07/18 11:07:28;;;;;;;6.53;1.63;;;;;;;24.95;42.54;102078.91;5043145;28;20519;-70
2022/07/18 11:09:57;;;;;;;6.63;2.53;;;;;;;25.01;42.34;102069.53;5043374;28;20046;-70
2022/07/18 11:12:27;;;;;;;2.28;1.63;;;;;;;25.06;42.24;102076.91;5049768;28;20053;-69
2022/07/18 11:15:09;;;;;;;2.67;1.77;;;;;;;25.10;42.21;102067.78;5030189;28;20046;-67
2022/07/18 11:18:06;;;;;;;4.82;1.85;;;;;;;25.17;42.46;102056.44;5079344;28;20062;-68
2022/07/18 11:20:39;;;;;;;3.53;1.67;;;;;;;25.26;42.43;102055.53;5031993;28;20081;-68
2022/07/18 11:23:19;;;;;;;1.85;1.55;;;;;;;25.42;42.44;102058.09;5015995;28;20105;-68
2022/07/18 11:25:54;;;;;;;2.63;1.50;;;;;;;25.48;42.08;102060.50;5021191;28;20054;-68
2022/07/18 11:28:27;;;;;;;3.28;1.60;;;;;;;25.55;42.12;102057.41;5022141;28;20063;-68
2022/07/18 11:31:03;;;;;;;5.30;1.48;;;;;;;25.56;41.83;102054.34;5020760;28;20066;-67
2022/07/18 11:33:32;;;;;;;;;;;;;;;25.62;41.76;102057.88;5012709;28;20089;-67
2022/07/18 11:36:07;;;;;;;2.13;1.50;;;;;;;25.65;41.78;102048.22;5031314;28;19940;-68
2022/07/18 11:38:37;;;;;;;3.30;1.60;;;;;;;25.68;41.10;102053.16;5008480;28;20523;-69